createdAt,value
2018-01-13T00:00:25.767Z,43.87
2018-01-13T00:02:53.316Z,42.33
2018-01-13T00:05:20.840Z,47.17
2018-01-13T00:07:49.184Z,47.07
2018-01-13T00:10:16.704Z,45.00
2018-01-13T00:12:44.260Z,42.87
2018-01-13T00:15:11.798Z,44.60
2018-01-13T00:17:40.128Z,47.13
2018-01-13T00:20:07.660Z,47.07
2018-01-13T00:22:38.985Z,42.67
2018-01-13T00:25:07.297Z,48.17
2018-01-13T00:27:34.832Z,49.20
2018-01-13T00:30:02.381Z,52.43
2018-01-13T00:32:29.921Z,58.13
2018-01-13T00:34:57.468Z,59.63
2018-01-13T00:37:25.006Z,58.33
2018-01-13T00:39:52.565Z,60.53
2018-01-13T00:42:20.103Z,54.53
2018-01-13T00:44:47.660Z,58.27
2018-01-13T00:47:15.184Z,68.10
2018-01-13T00:49:43.501Z,64.67
2018-01-13T00:52:11.060Z,62.03
2018-01-13T00:54:38.607Z,64.40
2018-01-13T00:57:06.140Z,62.07
2018-01-13T00:59:33.704Z,56.10
2018-01-13T01:02:01.243Z,61.87
2018-01-13T01:04:29.566Z,58.10
2018-01-13T01:06:57.098Z,57.33
2018-01-13T01:09:24.640Z,52.93
2018-01-13T01:11:52.959Z,52.53
2018-01-13T01:14:20.512Z,61.90
2018-01-13T01:16:48.046Z,62.10
2018-01-13T01:19:15.623Z,48.70
2018-01-13T01:21:43.157Z,58.13
2018-01-13T01:24:11.470Z,54.43
2018-01-13T01:26:39.768Z,56.50
2018-01-13T01:29:07.317Z,52.73
2018-01-13T01:31:53.905Z,58.40
2018-01-13T01:34:21.450Z,46.70
2018-01-13T01:36:48.984Z,47.90
2018-01-13T01:39:17.315Z,52.23
2018-01-13T01:41:44.850Z,53.10
2018-01-13T01:44:13.165Z,41.70
2018-01-13T01:46:40.694Z,50.80
2018-01-13T01:49:08.249Z,49.87
2018-01-13T01:51:35.785Z,51.10
2018-01-13T01:54:03.333Z,48.97
2018-01-13T01:56:31.634Z,49.33
2018-01-13T01:58:59.184Z,55.23
2018-01-13T02:01:26.714Z,56.00
2018-01-13T02:03:55.037Z,55.60
2018-01-13T02:06:22.559Z,49.73
2018-01-13T02:08:50.869Z,52.03
2018-01-13T02:11:18.396Z,52.97
2018-01-13T02:13:46.717Z,49.00
2018-01-13T02:16:14.255Z,58.23
2018-01-13T02:18:41.805Z,57.53
2018-01-13T02:21:09.344Z,57.77
2018-01-13T02:23:37.652Z,54.97
2018-01-13T02:26:05.183Z,57.60
2018-01-13T02:28:33.475Z,55.77
2018-01-13T02:31:01.015Z,55.07
2018-01-13T02:33:29.327Z,65.10
2018-01-13T02:35:56.878Z,48.70
2018-01-13T02:38:24.413Z,52.07
2018-01-13T02:40:51.977Z,53.03
2018-01-13T02:43:19.527Z,58.73
2018-01-13T02:45:47.084Z,55.53
2018-01-13T02:48:14.627Z,60.33
2018-01-13T02:50:42.948Z,49.87
2018-01-13T02:53:10.490Z,54.77
2018-01-13T02:55:38.040Z,49.33
2018-01-13T02:58:05.580Z,48.80
2018-01-13T03:00:33.134Z,49.70
2018-01-13T03:03:01.438Z,49.67
2018-01-13T03:05:28.992Z,51.70
2018-01-13T03:07:56.521Z,49.87
2018-01-13T03:10:24.083Z,52.97
2018-01-13T03:12:51.806Z,45.70
2018-01-13T03:15:19.356Z,46.80
2018-01-13T03:17:46.897Z,45.73
2018-01-13T03:20:14.456Z,47.53
2018-01-13T03:22:41.996Z,51.53
2018-01-13T03:25:10.322Z,38.70
2018-01-13T03:27:37.897Z,40.07
2018-01-13T03:30:05.453Z,41.90
2018-01-13T03:32:32.972Z,42.97
2018-01-13T03:35:00.532Z,40.13
2018-01-13T03:37:28.514Z,41.97
2018-01-13T03:39:56.064Z,41.37
2018-01-13T03:42:23.601Z,43.83
2018-01-13T03:44:51.917Z,42.27
2018-01-13T03:47:19.457Z,40.60
2018-01-13T03:49:47.002Z,45.90
2018-01-13T03:52:14.525Z,37.90
2018-01-13T03:54:42.090Z,41.17
2018-01-13T03:57:09.627Z,35.87
2018-01-13T03:59:37.180Z,42.40
2018-01-13T04:02:04.734Z,31.77
2018-01-13T04:04:32.288Z,37.80
2018-01-13T04:06:59.863Z,43.87
2018-01-13T04:09:27.415Z,42.40
2018-01-13T04:11:54.946Z,37.07
2018-01-13T04:14:22.503Z,37.90
2018-01-13T04:16:50.038Z,43.90
2018-01-13T04:19:17.584Z,40.83
2018-01-13T04:21:45.885Z,41.93
2018-01-13T04:24:13.414Z,38.27
2018-01-13T04:26:41.803Z,42.00
2018-01-13T04:29:09.344Z,40.80
2018-01-13T04:31:41.749Z,42.53
2018-01-13T04:34:09.283Z,42.73
2018-01-13T04:36:36.828Z,43.90
2018-01-13T04:39:04.397Z,42.00
2018-01-13T04:41:32.717Z,41.13
2018-01-13T04:44:00.246Z,40.43
2018-01-13T04:46:27.808Z,39.73
2018-01-13T04:48:56.105Z,35.57
2018-01-13T04:51:23.665Z,37.30
2018-01-13T04:53:51.206Z,39.30
2018-01-13T04:56:18.759Z,40.83
2018-01-13T04:58:46.298Z,38.20
2018-01-13T05:01:13.854Z,41.63
2018-01-13T05:03:41.381Z,38.47
2018-01-13T05:06:08.925Z,38.67
2018-01-13T05:08:36.462Z,44.40
2018-01-13T05:11:04.019Z,39.77
2018-01-13T05:13:31.561Z,44.40
2018-01-13T05:15:59.875Z,40.47
2018-01-13T05:18:27.398Z,35.63
2018-01-13T05:20:55.721Z,36.53
2018-01-13T05:23:23.257Z,37.10
2018-01-13T05:25:50.813Z,39.03
2018-01-13T05:28:18.336Z,39.60
2018-01-13T05:30:46.889Z,38.10
2018-01-13T05:33:14.418Z,48.90
2018-01-13T05:35:41.974Z,44.90
2018-01-13T05:38:09.512Z,43.67
2018-01-13T05:40:37.076Z,34.03
2018-01-13T05:43:04.611Z,40.50
2018-01-13T05:45:32.936Z,45.03
2018-01-13T05:48:00.468Z,41.47
2018-01-13T05:50:28.012Z,41.50
2018-01-13T05:52:55.549Z,38.80
2018-01-13T05:55:23.096Z,41.20
2018-01-13T05:57:50.642Z,38.07
2018-01-13T06:00:18.195Z,41.53
2018-01-13T06:02:45.724Z,40.80
2018-01-13T06:05:13.297Z,41.60
2018-01-13T06:07:40.836Z,44.20
2018-01-13T06:10:08.388Z,43.07
2018-01-13T06:12:35.925Z,38.87
2018-01-13T06:15:03.473Z,40.80
2018-01-13T06:17:31.007Z,38.17
2018-01-13T06:19:58.563Z,38.73
2018-01-13T06:22:26.091Z,37.27
2018-01-13T06:24:53.640Z,34.53
2018-01-13T06:27:21.202Z,42.73
2018-01-13T06:29:48.735Z,41.07
2018-01-13T06:32:16.300Z,36.70
2018-01-13T06:34:44.650Z,35.70
2018-01-13T06:37:12.204Z,40.93
2018-01-13T06:39:39.738Z,38.10
2018-01-13T06:42:07.281Z,38.17
2018-01-13T06:44:34.826Z,36.47
2018-01-13T06:47:02.382Z,41.47
2018-01-13T06:49:29.914Z,37.93
2018-01-13T06:51:57.468Z,41.20
2018-01-13T06:54:24.992Z,32.53
2018-01-13T06:56:52.556Z,35.93
2018-01-13T06:59:20.082Z,36.23
2018-01-13T07:01:47.636Z,41.37
2018-01-13T07:04:15.176Z,41.27
2018-01-13T07:06:43.489Z,33.27
2018-01-13T07:09:11.037Z,38.00
2018-01-13T07:11:38.602Z,38.77
2018-01-13T07:14:06.130Z,39.53
2018-01-13T07:16:34.449Z,39.87
2018-01-13T07:19:01.964Z,41.87
2018-01-13T07:21:30.276Z,40.30
2018-01-13T07:23:57.814Z,37.40
2018-01-13T07:26:25.360Z,40.07
2018-01-13T07:28:53.661Z,36.53
2018-01-13T07:31:21.213Z,39.23
2018-01-13T07:33:48.750Z,42.97
2018-01-13T07:36:16.333Z,39.80
2018-01-13T07:38:43.866Z,35.80
2018-01-13T07:41:12.186Z,38.70
2018-01-13T07:43:39.713Z,35.33
2018-01-13T07:46:08.020Z,37.33
2018-01-13T07:48:35.541Z,37.87
2018-01-13T07:51:03.865Z,36.37
2018-01-13T07:53:31.392Z,37.17
2018-01-13T07:55:58.950Z,38.37
2018-01-13T07:58:26.478Z,36.50
2018-01-13T08:00:54.794Z,33.43
2018-01-13T08:03:22.330Z,32.40
2018-01-13T08:05:50.649Z,32.80
2018-01-13T08:08:18.180Z,38.33
2018-01-13T08:10:45.733Z,39.30
2018-01-13T08:13:13.260Z,33.43
2018-01-13T08:15:40.818Z,33.40
2018-01-13T08:18:08.344Z,36.93
2018-01-13T08:20:35.897Z,37.33
2018-01-13T08:23:03.434Z,35.13
2018-01-13T08:25:31.002Z,38.87
2018-01-13T08:27:58.539Z,34.93
2018-01-13T08:30:26.079Z,36.77
2018-01-13T08:32:54.409Z,30.50
2018-01-13T08:35:21.941Z,34.87
2018-01-13T08:37:49.497Z,30.07
2018-01-13T08:40:17.035Z,32.10
2018-01-13T08:42:45.346Z,30.97
2018-01-13T08:45:12.875Z,31.67
2018-01-13T08:47:41.200Z,39.37
2018-01-13T08:50:08.777Z,30.27
2018-01-13T08:52:36.329Z,34.57
2018-01-13T08:55:03.856Z,33.80
2018-01-13T08:57:31.413Z,30.17
2018-01-13T08:59:58.960Z,28.83
2018-01-13T09:02:30.212Z,29.57
2018-01-13T09:04:57.750Z,34.73
2018-01-13T09:07:26.058Z,31.63
2018-01-13T09:09:53.812Z,33.00
2018-01-13T09:12:21.364Z,29.80
2018-01-13T09:14:48.896Z,32.07
2018-01-13T09:17:17.205Z,33.33
2018-01-13T09:19:44.729Z,30.80
2018-01-13T09:22:13.056Z,31.20
2018-01-13T09:24:40.620Z,38.10
2018-01-13T09:27:08.181Z,33.40
2018-01-13T09:29:35.705Z,29.70
2018-01-13T09:32:03.290Z,26.40
2018-01-13T09:34:30.821Z,31.47
2018-01-13T09:36:58.381Z,39.93
2018-01-13T09:39:25.909Z,42.33
2018-01-13T09:41:54.265Z,27.83
2018-01-13T09:44:21.803Z,27.53
2018-01-13T09:46:49.390Z,34.57
2018-01-13T09:49:16.917Z,92.03
2018-01-13T09:51:44.617Z,49.97
2018-01-13T09:54:12.146Z,32.33
2018-01-13T09:56:39.689Z,31.87
2018-01-13T09:59:07.227Z,38.07
2018-01-13T10:01:34.784Z,54.77
2018-01-13T10:04:02.321Z,44.90
2018-01-13T10:06:30.648Z,41.70
2018-01-13T10:08:58.180Z,29.70
2018-01-13T10:11:25.731Z,31.50
2018-01-13T10:13:53.268Z,138.70
2018-01-13T10:16:20.813Z,64.93
2018-01-13T10:18:48.357Z,36.73
2018-01-13T10:21:15.888Z,28.03
2018-01-13T10:23:43.451Z,25.73
2018-01-13T10:26:10.980Z,27.93
2018-01-13T10:28:38.524Z,26.70
2018-01-13T10:31:06.833Z,24.80
2018-01-13T10:33:35.236Z,40.60
2018-01-13T10:36:02.768Z,54.67
2018-01-13T10:38:30.326Z,88.93
2018-01-13T10:40:57.869Z,28.30
2018-01-13T10:43:25.426Z,24.03
2018-01-13T10:45:52.988Z,26.57
2018-01-13T10:48:21.303Z,23.03
2018-01-13T10:50:48.846Z,22.90
2018-01-13T10:53:16.433Z,23.83
2018-01-13T10:55:43.966Z,24.67
2018-01-13T10:58:11.512Z,27.00
2018-01-13T11:00:39.057Z,29.33
2018-01-13T11:03:06.620Z,26.47
2018-01-13T11:05:34.170Z,26.07
2018-01-13T11:08:01.733Z,24.53
2018-01-13T11:10:29.264Z,32.50
2018-01-13T11:12:56.825Z,29.43
2018-01-13T11:15:24.354Z,21.83
2018-01-13T11:17:51.913Z,24.77
2018-01-13T11:20:19.456Z,21.73
2018-01-13T11:22:47.013Z,21.90
2018-01-13T11:25:14.540Z,21.27
2018-01-13T11:27:42.089Z,31.67
2018-01-13T11:30:09.636Z,24.17
2018-01-13T11:32:37.960Z,22.43
2018-01-13T11:35:05.492Z,30.33
2018-01-13T11:37:33.053Z,22.60
2018-01-13T11:40:00.595Z,27.77
2018-01-13T11:42:28.912Z,32.77
2018-01-13T11:44:56.441Z,30.10
2018-01-13T11:47:23.994Z,28.83
2018-01-13T11:49:52.297Z,25.60
2018-01-13T11:52:19.849Z,27.33
2018-01-13T11:54:47.385Z,34.63
2018-01-13T11:57:15.705Z,34.10
2018-01-13T11:59:43.241Z,32.53
2018-01-13T12:02:10.789Z,23.73
2018-01-13T12:04:38.313Z,23.93
2018-01-13T12:07:05.890Z,44.60
2018-01-13T12:09:34.193Z,38.53
2018-01-13T12:12:01.721Z,64.17
2018-01-13T12:14:30.024Z,44.57
2018-01-13T12:16:57.557Z,42.90
2018-01-13T12:19:25.864Z,86.50
2018-01-13T12:21:53.405Z,24.60
2018-01-13T12:24:20.959Z,57.77
2018-01-13T12:26:49.256Z,74.30
2018-01-13T12:29:16.806Z,52.43
2018-01-13T12:31:44.338Z,33.10
2018-01-13T12:34:12.112Z,24.97
2018-01-13T12:36:39.648Z,22.70
2018-01-13T12:39:07.193Z,38.23
2018-01-13T12:41:34.721Z,57.03
2018-01-13T12:44:02.269Z,22.30
2018-01-13T12:46:29.798Z,60.70
2018-01-13T12:48:58.109Z,58.83
2018-01-13T12:51:25.645Z,49.00
2018-01-13T12:53:54.197Z,37.93
2018-01-13T12:56:21.724Z,115.70
2018-01-13T12:58:49.275Z,82.30
2018-01-13T13:01:16.804Z,27.77
2018-01-13T13:03:44.362Z,25.97
2018-01-13T13:06:11.907Z,51.27
2018-01-13T13:08:40.252Z,27.30
2018-01-13T13:11:07.803Z,23.43
2018-01-13T13:13:35.454Z,25.33
2018-01-13T13:16:02.982Z,31.93
2018-01-13T13:18:30.528Z,21.63
2018-01-13T13:20:58.828Z,25.97
2018-01-13T13:23:26.382Z,39.73
2018-01-13T13:25:53.917Z,28.43
2018-01-13T13:28:21.497Z,24.83
2018-01-13T13:30:49.121Z,30.43
2018-01-13T13:33:16.800Z,37.50
2018-01-13T13:35:45.116Z,41.67
2018-01-13T13:38:12.690Z,23.17
2018-01-13T13:40:40.485Z,35.97
2018-01-13T13:43:09.236Z,32.53
2018-01-13T13:45:36.845Z,45.10
2018-01-13T13:48:05.585Z,38.93
2018-01-13T13:50:34.320Z,32.93
2018-01-13T13:53:01.948Z,52.70
2018-01-13T13:55:30.844Z,29.80
2018-01-13T13:57:58.679Z,32.10
2018-01-13T14:00:26.249Z,28.20
2018-01-13T14:02:53.984Z,24.60
2018-01-13T14:05:21.610Z,30.33
2018-01-13T14:07:49.903Z,22.63
2018-01-13T14:10:17.477Z,28.20
2018-01-13T14:12:45.781Z,26.03
2018-01-13T14:15:13.344Z,24.07
2018-01-13T14:17:40.908Z,26.73
2018-01-13T14:20:08.513Z,23.93
2018-01-13T14:22:36.290Z,22.37
2018-01-13T14:25:03.844Z,28.00
2018-01-13T14:27:31.422Z,44.53
2018-01-13T14:29:59.045Z,24.53
2018-01-13T14:32:27.343Z,26.90
2018-01-13T14:34:54.876Z,24.37
2018-01-13T14:37:23.196Z,28.50
2018-01-13T14:39:50.738Z,40.70
2018-01-13T14:42:18.293Z,45.90
2018-01-13T14:44:45.825Z,37.87
2018-01-13T14:47:14.146Z,31.30
2018-01-13T14:49:41.685Z,29.83
2018-01-13T14:52:09.241Z,28.93
2018-01-13T14:54:36.772Z,53.03
2018-01-13T14:57:05.088Z,26.40
2018-01-13T14:59:32.621Z,26.97
2018-01-13T15:02:00.174Z,20.13
2018-01-13T15:04:28.477Z,25.07
2018-01-13T15:06:56.043Z,22.73
2018-01-13T15:09:23.578Z,37.10
2018-01-13T15:11:51.133Z,28.97
2018-01-13T15:14:18.660Z,36.30
2018-01-13T15:16:46.998Z,28.00
2018-01-13T15:19:14.528Z,29.53
2018-01-13T15:21:42.076Z,28.27
2018-01-13T15:24:10.377Z,27.27
2018-01-13T15:26:37.991Z,21.13
2018-01-13T15:29:06.292Z,18.53
2018-01-13T15:31:36.649Z,24.00
2018-01-13T15:34:04.425Z,35.53
2018-01-13T15:36:31.963Z,41.57
2018-01-13T15:38:59.508Z,66.63
2018-01-13T15:41:27.044Z,31.47
2018-01-13T15:43:55.369Z,27.60
2018-01-13T15:46:22.908Z,29.20
2018-01-13T15:48:50.473Z,28.30
2018-01-13T15:51:18.009Z,32.27
2018-01-13T15:53:46.337Z,30.73
2018-01-13T15:56:13.896Z,31.10
2018-01-13T15:58:41.450Z,23.90
2018-01-13T16:01:08.978Z,24.50
2018-01-13T16:03:36.528Z,23.20
2018-01-13T16:06:04.066Z,20.73
2018-01-13T16:08:32.383Z,18.70
2018-01-13T16:10:59.916Z,19.07
2018-01-13T16:13:27.480Z,19.17
2018-01-13T16:15:55.111Z,18.47
2018-01-13T16:18:22.687Z,34.43
2018-01-13T16:20:50.994Z,25.97
2018-01-13T16:23:18.544Z,26.63
2018-01-13T16:25:46.110Z,29.80
2018-01-13T16:28:13.721Z,26.60
2018-01-13T16:30:41.255Z,23.30
2018-01-13T16:33:08.809Z,17.40
2018-01-13T16:35:36.379Z,18.93
2018-01-13T16:38:03.937Z,19.40
2018-01-13T16:40:31.469Z,20.07
2018-01-13T16:42:59.017Z,22.00
2018-01-13T16:45:26.551Z,20.80
2018-01-13T16:47:54.095Z,20.20
2018-01-13T16:50:22.496Z,20.77
2018-01-13T16:52:50.075Z,24.20
2018-01-13T16:55:17.604Z,23.07
2018-01-13T16:57:45.166Z,20.80
2018-01-13T17:00:13.460Z,20.60
2018-01-13T17:02:41.054Z,20.37
2018-01-13T17:05:08.634Z,24.53
2018-01-13T17:07:36.189Z,20.70
2018-01-13T17:10:03.763Z,23.60
2018-01-13T17:12:32.096Z,22.33
2018-01-13T17:14:59.638Z,21.43
2018-01-13T17:17:27.202Z,23.27
2018-01-13T17:19:54.733Z,21.53
2018-01-13T17:22:22.276Z,24.67
2018-01-13T17:24:50.579Z,26.97
2018-01-13T17:27:18.143Z,24.77
2018-01-13T17:29:45.672Z,25.80
2018-01-13T17:32:13.973Z,25.37
2018-01-13T17:34:41.520Z,34.83
2018-01-13T17:37:09.092Z,36.97
2018-01-13T17:39:36.940Z,24.90
2018-01-13T17:42:04.482Z,32.47
2018-01-13T17:44:32.041Z,34.57
2018-01-13T17:47:00.402Z,43.07
2018-01-13T17:49:27.960Z,41.90
2018-01-13T17:51:55.535Z,24.57
2018-01-13T17:54:23.092Z,24.63
2018-01-13T17:56:50.629Z,21.53
2018-01-13T17:59:18.192Z,20.43
2018-01-13T18:01:45.789Z,21.57
2018-01-13T18:04:14.116Z,20.90
2018-01-13T18:06:41.655Z,23.60
2018-01-13T18:09:09.241Z,20.70
2018-01-13T18:11:36.794Z,18.93
2018-01-13T18:14:04.366Z,23.40
2018-01-13T18:16:31.921Z,18.50
2018-01-13T18:18:59.461Z,20.90
2018-01-13T18:21:27.059Z,21.53
2018-01-13T18:23:54.638Z,27.07
2018-01-13T18:26:22.946Z,22.33
2018-01-13T18:28:50.524Z,22.23
2018-01-13T18:31:18.081Z,23.60
2018-01-13T18:33:45.622Z,24.37
2018-01-13T18:36:13.239Z,34.43
2018-01-13T18:38:41.532Z,24.73
2018-01-13T18:41:09.096Z,25.03
2018-01-13T18:43:36.710Z,28.17
2018-01-13T18:46:04.321Z,27.13
2018-01-13T18:48:31.909Z,23.70
2018-01-13T18:50:59.511Z,23.20
2018-01-13T18:53:27.867Z,27.13
2018-01-13T18:55:55.479Z,23.70
2018-01-13T18:58:23.117Z,28.70
2018-01-13T19:00:50.694Z,23.27
2018-01-13T19:03:18.276Z,23.83
2018-01-13T19:05:45.781Z,21.27
2018-01-13T19:08:14.171Z,28.00
2018-01-13T19:10:42.530Z,25.33
2018-01-13T19:13:10.132Z,21.70
2018-01-13T19:15:37.668Z,24.17
2018-01-13T19:18:05.613Z,25.77
2018-01-13T19:20:33.153Z,26.03
2018-01-13T19:23:00.793Z,23.03
2018-01-13T19:25:28.315Z,25.33
2018-01-13T19:27:55.876Z,25.93
2018-01-13T19:30:23.451Z,26.33
2018-01-13T19:32:51.223Z,27.73
2018-01-13T19:35:18.765Z,26.87
2018-01-13T19:37:46.392Z,25.33
2018-01-13T19:40:13.995Z,24.53
2018-01-13T19:42:41.523Z,23.83
2018-01-13T19:45:09.126Z,26.47
2018-01-13T19:47:36.715Z,24.43
2018-01-13T19:50:04.331Z,32.20
2018-01-13T19:52:31.857Z,28.37
2018-01-13T19:55:00.184Z,26.30
2018-01-13T19:57:28.067Z,25.53
2018-01-13T19:59:55.675Z,27.13
2018-01-13T20:02:23.257Z,27.43
2018-01-13T20:04:50.884Z,27.60
2018-01-13T20:07:19.184Z,23.37
2018-01-13T20:09:46.750Z,27.33
2018-01-13T20:12:14.338Z,20.33
2018-01-13T20:14:41.956Z,23.17
2018-01-13T20:17:09.581Z,23.83
2018-01-13T20:19:37.173Z,26.33
2018-01-13T20:22:04.755Z,29.77
2018-01-13T20:24:32.355Z,27.70
2018-01-13T20:27:00.175Z,27.07
2018-01-13T20:29:27.777Z,28.73
2018-01-13T20:31:55.364Z,28.57
2018-01-13T20:34:23.728Z,25.53
2018-01-13T20:36:52.315Z,32.73
2018-01-13T20:39:20.688Z,29.90
2018-01-13T20:41:49.031Z,28.93
2018-01-13T20:44:16.641Z,25.93
2018-01-13T20:46:44.993Z,26.07
2018-01-13T20:49:12.553Z,30.53
2018-01-13T20:51:40.151Z,32.73
2018-01-13T20:54:07.777Z,27.10
2018-01-13T20:56:35.380Z,27.13
2018-01-13T20:59:02.976Z,24.50
2018-01-13T21:01:45.028Z,26.33
2018-01-13T21:04:12.792Z,22.70
2018-01-13T21:06:40.381Z,25.60
2018-01-13T21:09:07.959Z,25.30
2018-01-13T21:11:41.850Z,22.87
2018-01-13T21:14:09.430Z,25.90
2018-01-13T21:16:37.037Z,23.77
2018-01-13T21:19:04.617Z,27.80
2018-01-13T21:21:32.296Z,27.57
2018-01-13T21:23:59.824Z,32.10
2018-01-13T21:26:27.421Z,32.00
2018-01-13T21:28:54.985Z,26.97
2018-01-13T21:31:22.601Z,30.33
2018-01-13T21:33:50.177Z,26.57
2018-01-13T21:36:17.774Z,25.20
2018-01-13T21:38:45.364Z,28.10
2018-01-13T21:41:13.063Z,28.47
2018-01-13T21:43:40.644Z,25.37
2018-01-13T21:46:08.322Z,26.70
2018-01-13T21:48:35.869Z,28.20
2018-01-13T21:51:03.481Z,31.73
2018-01-13T21:53:31.081Z,26.37
2018-01-13T21:55:58.687Z,29.13
2018-01-13T21:58:26.270Z,27.83
2018-01-13T22:00:53.884Z,25.27
2018-01-13T22:03:22.224Z,26.63
2018-01-13T22:05:49.777Z,25.00
2018-01-13T22:08:17.355Z,28.13
2018-01-13T22:10:44.909Z,24.60
2018-01-13T22:13:12.484Z,22.77
2018-01-13T22:15:40.074Z,27.17
2018-01-13T22:18:08.416Z,23.67
2018-01-13T22:20:36.023Z,21.90
2018-01-13T22:23:03.608Z,24.63
2018-01-13T22:25:31.220Z,23.17
2018-01-13T22:27:59.554Z,26.70
2018-01-13T22:30:27.155Z,22.57
2018-01-13T22:32:55.507Z,22.90
2018-01-13T22:35:23.092Z,27.20
2018-01-13T22:37:50.675Z,25.73
2018-01-13T22:40:18.325Z,24.93
2018-01-13T22:42:45.888Z,24.90
2018-01-13T22:45:13.492Z,25.63
2018-01-13T22:47:41.015Z,21.43
2018-01-13T22:50:08.629Z,24.33
2018-01-13T22:52:36.157Z,23.73
2018-01-13T22:55:03.709Z,28.97
2018-01-13T22:57:31.287Z,25.40
2018-01-13T22:59:58.878Z,28.83
2018-01-13T23:02:27.251Z,23.23
2018-01-13T23:04:54.831Z,30.13
2018-01-13T23:07:22.442Z,26.00
2018-01-13T23:09:50.029Z,28.37
2018-01-13T23:12:17.638Z,30.00
2018-01-13T23:14:45.232Z,25.77
2018-01-13T23:17:12.798Z,26.57
2018-01-13T23:19:40.374Z,28.07
2018-01-13T23:22:08.749Z,30.27
2018-01-13T23:24:37.094Z,29.17
2018-01-13T23:27:16.617Z,29.03
2018-01-13T23:29:44.959Z,29.53
2018-01-13T23:32:13.324Z,30.53
2018-01-13T23:34:41.623Z,32.73
2018-01-13T23:37:09.188Z,30.00
2018-01-13T23:39:36.737Z,30.83
2018-01-13T23:42:04.305Z,29.20
2018-01-13T23:44:31.832Z,34.90
2018-01-13T23:47:00.153Z,32.67
2018-01-13T23:49:27.744Z,28.77
2018-01-13T23:51:55.308Z,30.30
2018-01-13T23:54:22.878Z,32.33
2018-01-13T23:56:50.420Z,28.17
2018-01-13T23:59:17.953Z,31.53
